sensor_id;sensor_type;location;lat;lon;timestamp;P1;durP1;ratioP1;P2;durP2;ratioP2
48285;SDS011;34102;47.716;10.296;2023-02-07T04:41:23;25.27;;;12.68;;
48285;SDS011;34102;47.716;10.296;2023-02-07T04:43:49;22.95;;;12.60;;
48285;SDS011;34102;47.716;10.296;2023-02-07T04:46:14;20.48;;;12.23;;
48285;SDS011;34102;47.716;10.296;2023-02-07T04:48:39;22.98;;;13.00;;
48285;SDS011;34102;47.716;10.296;2023-02-07T04:51:05;29.02;;;13.73;;
48285;SDS011;34102;47.716;10.296;2023-02-07T04:53:30;46.58;;;22.38;;
48285;SDS011;34102;47.716;10.296;2023-02-07T04:55:56;27.17;;;13.98;;
48285;SDS011;34102;47.716;10.296;2023-02-07T04:58:21;21.25;;;11.85;;
48285;SDS011;34102;47.716;10.296;2023-02-07T05:00:47;19.50;;;12.20;;
48285;SDS011;34102;47.716;10.296;2023-02-07T05:03:12;22.90;;;13.38;;
48285;SDS011;34102;47.716;10.296;2023-02-07T05:05:39;22.05;;;12.65;;
48285;SDS011;34102;47.716;10.296;2023-02-07T05:08:04;19.15;;;11.35;;
48285;SDS011;34102;47.716;10.296;2023-02-07T05:10:30;21.30;;;12.45;;
48285;SDS011;34102;47.716;10.296;2023-02-07T05:12:55;22.92;;;12.63;;
48285;SDS011;34102;47.716;10.296;2023-02-07T05:15:20;30.90;;;15.65;;
48285;SDS011;34102;47.716;10.296;2023-02-07T05:17:45;25.75;;;14.05;;
48285;SDS011;34102;47.716;10.296;2023-02-07T05:20:11;31.10;;;16.38;;
48285;SDS011;34102;47.716;10.296;2023-02-07T05:22:36;25.33;;;14.00;;
48285;SDS011;34102;47.716;10.296;2023-02-07T05:25:02;28.20;;;14.40;;
48285;SDS011;34102;47.716;10.296;2023-02-07T05:27:27;26.27;;;13.15;;
48285;SDS011;34102;47.716;10.296;2023-02-07T05:29:52;29.60;;;14.45;;
48285;SDS011;34102;47.716;10.296;2023-02-07T05:32:18;22.88;;;13.07;;
48285;SDS011;34102;47.716;10.296;2023-02-07T05:35:02;22.40;;;12.80;;
48285;SDS011;34102;47.716;10.296;2023-02-07T05:37:27;26.67;;;13.70;;
48285;SDS011;34102;47.716;10.296;2023-02-07T05:39:52;22.65;;;12.30;;
48285;SDS011;34102;47.716;10.296;2023-02-07T05:42:17;23.20;;;12.98;;
48285;SDS011;34102;47.716;10.296;2023-02-07T05:44:43;24.23;;;13.23;;
48285;SDS011;34102;47.716;10.296;2023-02-07T05:47:08;20.45;;;12.13;;
48285;SDS011;34102;47.716;10.296;2023-02-07T05:49:34;22.73;;;11.90;;
48285;SDS011;34102;47.716;10.296;2023-02-07T05:51:59;21.65;;;12.68;;
48285;SDS011;34102;47.716;10.296;2023-02-07T05:54:24;23.90;;;11.68;;
48285;SDS011;34102;47.716;10.296;2023-02-07T05:56:49;23.08;;;11.68;;
48285;SDS011;34102;47.716;10.296;2023-02-07T05:59:15;23.48;;;12.25;;
48285;SDS011;34102;47.716;10.296;2023-02-07T06:01:40;26.50;;;12.30;;
48285;SDS011;34102;47.716;10.296;2023-02-07T06:04:05;21.13;;;11.43;;
48285;SDS011;34102;47.716;10.296;2023-02-07T06:06:31;19.88;;;11.18;;
48285;SDS011;34102;47.716;10.296;2023-02-07T06:08:56;26.20;;;12.90;;
48285;SDS011;34102;47.716;10.296;2023-02-07T06:11:21;22.75;;;13.23;;
48285;SDS011;34102;47.716;10.296;2023-02-07T06:13:46;25.92;;;12.95;;
48285;SDS011;34102;47.716;10.296;2023-02-07T06:16:12;24.38;;;12.88;;
48285;SDS011;34102;47.716;10.296;2023-02-07T06:18:37;21.15;;;11.82;;
48285;SDS011;34102;47.716;10.296;2023-02-07T06:21:02;21.33;;;12.25;;
48285;SDS011;34102;47.716;10.296;2023-02-07T06:23:28;22.58;;;11.60;;
48285;SDS011;34102;47.716;10.296;2023-02-07T06:25:53;23.88;;;12.73;;
48285;SDS011;34102;47.716;10.296;2023-02-07T06:28:18;20.45;;;10.38;;
48285;SDS011;34102;47.716;10.296;2023-02-07T06:30:44;26.55;;;13.38;;
48285;SDS011;34102;47.716;10.296;2023-02-07T06:33:09;24.65;;;12.00;;
48285;SDS011;34102;47.716;10.296;2023-02-07T06:35:35;21.75;;;11.88;;
48285;SDS011;34102;47.716;10.296;2023-02-07T06:38:00;23.85;;;12.18;;
48285;SDS011;34102;47.716;10.296;2023-02-07T06:40:25;24.30;;;12.27;;
48285;SDS011;34102;47.716;10.296;2023-02-07T06:42:51;25.10;;;13.45;;
48285;SDS011;34102;47.716;10.296;2023-02-07T06:45:16;22.70;;;12.68;;
48285;SDS011;34102;47.716;10.296;2023-02-07T06:47:41;24.85;;;13.27;;
48285;SDS011;34102;47.716;10.296;2023-02-07T06:50:06;28.27;;;12.90;;
48285;SDS011;34102;47.716;10.296;2023-02-07T06:52:32;27.67;;;14.63;;
48285;SDS011;34102;47.716;10.296;2023-02-07T06:54:57;30.27;;;15.70;;
48285;SDS011;34102;47.716;10.296;2023-02-07T06:57:22;27.60;;;14.10;;
48285;SDS011;34102;47.716;10.296;2023-02-07T06:59:47;27.52;;;14.35;;
48285;SDS011;34102;47.716;10.296;2023-02-07T11:11:39;16.02;;;9.60;;
48285;SDS011;34102;47.716;10.296;2023-02-07T11:14:10;19.30;;;9.88;;
48285;SDS011;34102;47.716;10.296;2023-02-07T11:16:39;17.70;;;9.38;;
48285;SDS011;34102;47.716;10.296;2023-02-07T11:19:06;14.13;;;8.77;;
48285;SDS011;34102;47.716;10.296;2023-02-07T11:24:06;15.10;;;8.98;;
48285;SDS011;34102;47.716;10.296;2023-02-07T11:26:33;14.65;;;9.50;;
48285;SDS011;34102;47.716;10.296;2023-02-07T11:29:04;20.52;;;9.73;;
48285;SDS011;34102;47.716;10.296;2023-02-07T11:31:31;16.50;;;10.00;;
48285;SDS011;34102;47.716;10.296;2023-02-07T11:34:17;19.08;;;10.70;;
48285;SDS011;34102;47.716;10.296;2023-02-07T11:36:44;19.50;;;10.45;;
48285;SDS011;34102;47.716;10.296;2023-02-07T11:39:17;16.60;;;10.20;;
48285;SDS011;34102;47.716;10.296;2023-02-07T11:41:51;18.70;;;10.32;;
48285;SDS011;34102;47.716;10.296;2023-02-07T11:44:16;18.80;;;10.68;;
48285;SDS011;34102;47.716;10.296;2023-02-07T11:46:42;16.83;;;9.48;;
48285;SDS011;34102;47.716;10.296;2023-02-07T11:51:53;16.92;;;9.55;;
48285;SDS011;34102;47.716;10.296;2023-02-07T11:54:19;17.92;;;9.77;;
48285;SDS011;34102;47.716;10.296;2023-02-07T11:56:47;18.27;;;10.65;;
48285;SDS011;34102;47.716;10.296;2023-02-07T11:59:15;18.55;;;10.60;;
48285;SDS011;34102;47.716;10.296;2023-02-07T12:01:42;15.52;;;9.73;;
48285;SDS011;34102;47.716;10.296;2023-02-07T12:04:14;20.90;;;11.38;;
48285;SDS011;34102;47.716;10.296;2023-02-07T12:07:00;15.13;;;9.57;;
48285;SDS011;34102;47.716;10.296;2023-02-07T12:11:56;17.77;;;9.43;;
48285;SDS011;34102;47.716;10.296;2023-02-07T12:16:51;13.93;;;8.80;;
48285;SDS011;34102;47.716;10.296;2023-02-07T12:19:20;19.77;;;10.05;;
48285;SDS011;34102;47.716;10.296;2023-02-07T12:22:06;16.42;;;9.13;;
48285;SDS011;34102;47.716;10.296;2023-02-07T12:24:36;16.95;;;9.80;;
48285;SDS011;34102;47.716;10.296;2023-02-07T12:29:46;15.57;;;9.52;;
48285;SDS011;34102;47.716;10.296;2023-02-07T12:37:41;15.40;;;9.27;;
48285;SDS011;34102;47.716;10.296;2023-02-07T12:42:47;17.00;;;10.80;;
48285;SDS011;34102;47.716;10.296;2023-02-07T12:45:16;18.88;;;10.90;;
48285;SDS011;34102;47.716;10.296;2023-02-07T12:52:53;15.43;;;9.85;;
48285;SDS011;34102;47.716;10.296;2023-02-07T12:55:27;17.85;;;10.05;;
48285;SDS011;34102;47.716;10.296;2023-02-07T13:00:25;16.70;;;11.17;;
48285;SDS011;34102;47.716;10.296;2023-02-07T13:05:33;14.93;;;9.82;;
48285;SDS011;34102;47.716;10.296;2023-02-07T13:08:06;19.73;;;11.68;;
48285;SDS011;34102;47.716;10.296;2023-02-07T13:13:16;17.92;;;11.00;;
48285;SDS011;34102;47.716;10.296;2023-02-07T13:21:04;16.38;;;10.07;;
48285;SDS011;34102;47.716;10.296;2023-02-07T13:23:33;17.63;;;10.57;;
48285;SDS011;34102;47.716;10.296;2023-02-07T13:26:01;17.48;;;11.35;;
48285;SDS011;34102;47.716;10.296;2023-02-07T13:29:11;14.13;;;10.13;;
48285;SDS011;34102;47.716;10.296;2023-02-07T13:31:20;18.05;;;9.38;;
48285;SDS011;34102;47.716;10.296;2023-02-07T13:33:46;16.65;;;10.55;;
48285;SDS011;34102;47.716;10.296;2023-02-07T13:36:21;15.57;;;9.90;;
48285;SDS011;34102;47.716;10.296;2023-02-07T13:38:56;17.25;;;11.15;;
48285;SDS011;34102;47.716;10.296;2023-02-07T13:46:51;15.13;;;9.73;;
48285;SDS011;34102;47.716;10.296;2023-02-07T13:49:35;14.85;;;9.88;;
48285;SDS011;34102;47.716;10.296;2023-02-07T13:52:13;14.93;;;9.90;;
48285;SDS011;34102;47.716;10.296;2023-02-07T13:54:42;17.63;;;9.23;;
48285;SDS011;34102;47.716;10.296;2023-02-07T13:57:20;13.70;;;9.52;;
48285;SDS011;34102;47.716;10.296;2023-02-07T14:02:34;15.52;;;9.70;;
48285;SDS011;34102;47.716;10.296;2023-02-07T14:05:07;18.00;;;10.65;;
48285;SDS011;34102;47.716;10.296;2023-02-07T14:07:34;18.40;;;9.75;;
48285;SDS011;34102;47.716;10.296;2023-02-07T14:10:00;17.05;;;9.95;;
48285;SDS011;34102;47.716;10.296;2023-02-07T14:12:30;17.10;;;10.18;;
48285;SDS011;34102;47.716;10.296;2023-02-07T14:15:16;17.73;;;10.40;;
48285;SDS011;34102;47.716;10.296;2023-02-07T14:20:18;15.10;;;10.05;;
48285;SDS011;34102;47.716;10.296;2023-02-07T14:30:34;15.82;;;9.20;;
48285;SDS011;34102;47.716;10.296;2023-02-07T14:35:30;15.95;;;10.02;;
48285;SDS011;34102;47.716;10.296;2023-02-07T14:43:15;14.98;;;8.80;;
48285;SDS011;34102;47.716;10.296;2023-02-07T14:50:53;14.50;;;8.68;;
48285;SDS011;34102;47.716;10.296;2023-02-07T14:53:19;14.55;;;8.77;;
48285;SDS011;34102;47.716;10.296;2023-02-07T14:55:48;12.90;;;8.60;;
48285;SDS011;34102;47.716;10.296;2023-02-07T14:58:23;13.77;;;8.57;;
48285;SDS011;34102;47.716;10.296;2023-02-07T15:00:52;11.20;;;8.07;;
48285;SDS011;34102;47.716;10.296;2023-02-07T15:03:19;18.15;;;9.13;;
48285;SDS011;34102;47.716;10.296;2023-02-07T15:05:48;13.70;;;8.50;;
48285;SDS011;34102;47.716;10.296;2023-02-07T15:08:19;15.25;;;9.18;;
48285;SDS011;34102;47.716;10.296;2023-02-07T15:10:50;11.82;;;8.05;;
48285;SDS011;34102;47.716;10.296;2023-02-07T15:13:22;12.27;;;8.40;;
48285;SDS011;34102;47.716;10.296;2023-02-07T15:18:20;12.95;;;7.93;;
48285;SDS011;34102;47.716;10.296;2023-02-07T15:20:47;11.43;;;7.70;;
48285;SDS011;34102;47.716;10.296;2023-02-07T15:23:14;16.60;;;8.45;;
48285;SDS011;34102;47.716;10.296;2023-02-07T15:25:39;13.02;;;8.80;;
48285;SDS011;34102;47.716;10.296;2023-02-07T15:28:14;12.75;;;8.43;;
48285;SDS011;34102;47.716;10.296;2023-02-07T15:30:52;13.82;;;8.77;;
48285;SDS011;34102;47.716;10.296;2023-02-07T15:33:22;18.20;;;9.30;;
48285;SDS011;34102;47.716;10.296;2023-02-07T15:35:48;15.45;;;9.68;;
48285;SDS011;34102;47.716;10.296;2023-02-07T15:38:15;20.10;;;10.43;;
48285;SDS011;34102;47.716;10.296;2023-02-07T15:40:41;14.50;;;9.88;;
48285;SDS011;34102;47.716;10.296;2023-02-07T15:43:18;18.75;;;9.70;;
48285;SDS011;34102;47.716;10.296;2023-02-07T15:45:56;16.42;;;10.60;;
48285;SDS011;34102;47.716;10.296;2023-02-07T15:48:21;14.68;;;9.38;;
48285;SDS011;34102;47.716;10.296;2023-02-07T15:50:50;14.40;;;9.13;;
48285;SDS011;34102;47.716;10.296;2023-02-07T15:53:18;17.27;;;9.30;;
48285;SDS011;34102;47.716;10.296;2023-02-07T15:55:46;14.55;;;8.43;;
48285;SDS011;34102;47.716;10.296;2023-02-07T15:58:27;18.02;;;10.00;;
48285;SDS011;34102;47.716;10.296;2023-02-07T16:00:59;15.18;;;9.43;;
48285;SDS011;34102;47.716;10.296;2023-02-07T16:03:26;13.68;;;8.77;;
48285;SDS011;34102;47.716;10.296;2023-02-07T16:08:54;18.08;;;9.23;;
48285;SDS011;34102;47.716;10.296;2023-02-07T16:14:11;16.70;;;9.52;;
48285;SDS011;34102;47.716;10.296;2023-02-07T16:16:47;17.40;;;9.73;;
48285;SDS011;34102;47.716;10.296;2023-02-07T16:21:38;17.15;;;10.07;;
48285;SDS011;34102;47.716;10.296;2023-02-07T16:24:17;17.80;;;9.88;;
48285;SDS011;34102;47.716;10.296;2023-02-07T16:26:43;18.27;;;9.68;;
48285;SDS011;34102;47.716;10.296;2023-02-07T16:29:17;15.02;;;10.02;;
48285;SDS011;34102;47.716;10.296;2023-02-07T16:31:43;13.88;;;9.57;;
48285;SDS011;34102;47.716;10.296;2023-02-07T16:34:12;13.77;;;8.80;;
48285;SDS011;34102;47.716;10.296;2023-02-07T16:36:38;15.38;;;9.48;;
48285;SDS011;34102;47.716;10.296;2023-02-07T16:39:03;18.17;;;10.20;;
48285;SDS011;34102;47.716;10.296;2023-02-07T16:41:28;16.08;;;9.05;;
48285;SDS011;34102;47.716;10.296;2023-02-07T16:43:59;15.48;;;9.55;;
48285;SDS011;34102;47.716;10.296;2023-02-07T16:46:25;17.83;;;9.63;;
48285;SDS011;34102;47.716;10.296;2023-02-07T16:48:50;18.73;;;10.27;;
48285;SDS011;34102;47.716;10.296;2023-02-07T16:51:15;15.98;;;10.15;;
48285;SDS011;34102;47.716;10.296;2023-02-07T16:53:41;19.45;;;10.13;;
48285;SDS011;34102;47.716;10.296;2023-02-07T16:56:07;19.27;;;10.65;;
48285;SDS011;34102;47.716;10.296;2023-02-07T16:58:34;19.15;;;10.20;;
48285;SDS011;34102;47.716;10.296;2023-02-07T17:01:00;20.40;;;10.23;;
48285;SDS011;34102;47.716;10.296;2023-02-07T17:03:26;19.77;;;10.65;;
48285;SDS011;34102;47.716;10.296;2023-02-07T17:05:52;18.48;;;11.07;;
48285;SDS011;34102;47.716;10.296;2023-02-07T17:08:18;18.50;;;9.90;;
48285;SDS011;34102;47.716;10.296;2023-02-07T17:10:48;21.00;;;11.40;;
48285;SDS011;34102;47.716;10.296;2023-02-07T17:13:15;17.92;;;10.85;;
48285;SDS011;34102;47.716;10.296;2023-02-07T17:15:40;20.15;;;12.27;;
48285;SDS011;34102;47.716;10.296;2023-02-07T17:18:05;21.33;;;11.95;;
48285;SDS011;34102;47.716;10.296;2023-02-07T17:20:32;23.05;;;13.15;;
48285;SDS011;34102;47.716;10.296;2023-02-07T17:22:57;21.45;;;13.02;;
48285;SDS011;34102;47.716;10.296;2023-02-07T17:25:24;29.30;;;15.18;;
48285;SDS011;34102;47.716;10.296;2023-02-07T17:27:50;32.17;;;17.10;;
48285;SDS011;34102;47.716;10.296;2023-02-07T17:30:16;22.20;;;12.13;;
48285;SDS011;34102;47.716;10.296;2023-02-07T17:32:42;23.63;;;13.15;;
48285;SDS011;34102;47.716;10.296;2023-02-07T17:35:07;31.88;;;17.20;;
48285;SDS011;34102;47.716;10.296;2023-02-07T17:37:33;33.10;;;16.98;;
48285;SDS011;34102;47.716;10.296;2023-02-07T17:39:58;36.22;;;18.33;;
48285;SDS011;34102;47.716;10.296;2023-02-07T17:42:23;29.23;;;16.58;;
48285;SDS011;34102;47.716;10.296;2023-02-07T17:44:49;37.58;;;17.92;;
48285;SDS011;34102;47.716;10.296;2023-02-07T17:47:14;29.40;;;15.85;;
48285;SDS011;34102;47.716;10.296;2023-02-07T17:49:39;25.85;;;15.80;;
48285;SDS011;34102;47.716;10.296;2023-02-07T17:52:04;25.15;;;14.35;;
48285;SDS011;34102;47.716;10.296;2023-02-07T17:54:32;24.85;;;13.27;;
48285;SDS011;34102;47.716;10.296;2023-02-07T17:56:57;30.25;;;17.40;;
48285;SDS011;34102;47.716;10.296;2023-02-07T17:59:24;31.15;;;17.20;;
48285;SDS011;34102;47.716;10.296;2023-02-07T18:01:50;24.65;;;15.02;;
48285;SDS011;34102;47.716;10.296;2023-02-07T18:04:15;24.75;;;13.75;;
48285;SDS011;34102;47.716;10.296;2023-02-07T18:06:41;28.13;;;13.75;;
48285;SDS011;34102;47.716;10.296;2023-02-07T18:09:06;19.73;;;11.85;;
48285;SDS011;34102;47.716;10.296;2023-02-07T18:11:31;22.30;;;11.23;;
48285;SDS011;34102;47.716;10.296;2023-02-07T18:13:58;19.88;;;11.00;;
48285;SDS011;34102;47.716;10.296;2023-02-07T18:16:26;20.80;;;10.40;;
48285;SDS011;34102;47.716;10.296;2023-02-07T18:18:52;18.38;;;10.32;;
48285;SDS011;34102;47.716;10.296;2023-02-07T18:21:17;19.85;;;10.63;;
48285;SDS011;34102;47.716;10.296;2023-02-07T18:23:43;16.30;;;9.15;;
48285;SDS011;34102;47.716;10.296;2023-02-07T18:26:12;16.63;;;8.52;;
48285;SDS011;34102;47.716;10.296;2023-02-07T18:28:39;17.45;;;9.85;;
48285;SDS011;34102;47.716;10.296;2023-02-07T18:31:11;17.67;;;8.95;;
48285;SDS011;34102;47.716;10.296;2023-02-07T18:33:37;16.98;;;8.73;;
48285;SDS011;34102;47.716;10.296;2023-02-07T18:36:02;14.15;;;7.78;;
48285;SDS011;34102;47.716;10.296;2023-02-07T18:38:27;18.60;;;8.73;;
48285;SDS011;34102;47.716;10.296;2023-02-07T18:40:53;14.93;;;8.20;;
48285;SDS011;34102;47.716;10.296;2023-02-07T18:43:18;12.20;;;8.00;;
48285;SDS011;34102;47.716;10.296;2023-02-07T18:45:43;21.83;;;9.35;;
48285;SDS011;34102;47.716;10.296;2023-02-07T18:48:08;14.82;;;8.60;;
48285;SDS011;34102;47.716;10.296;2023-02-07T18:50:34;17.38;;;9.02;;
48285;SDS011;34102;47.716;10.296;2023-02-07T18:52:59;17.17;;;8.07;;
48285;SDS011;34102;47.716;10.296;2023-02-07T18:55:24;13.82;;;7.93;;
48285;SDS011;34102;47.716;10.296;2023-02-07T18:57:53;14.52;;;7.60;;
48285;SDS011;34102;47.716;10.296;2023-02-07T19:00:21;13.48;;;7.88;;
48285;SDS011;34102;47.716;10.296;2023-02-07T19:02:46;15.32;;;7.50;;
48285;SDS011;34102;47.716;10.296;2023-02-07T19:05:12;17.33;;;8.07;;
48285;SDS011;34102;47.716;10.296;2023-02-07T19:07:37;17.77;;;8.88;;
48285;SDS011;34102;47.716;10.296;2023-02-07T19:10:02;17.05;;;8.80;;
48285;SDS011;34102;47.716;10.296;2023-02-07T19:12:28;17.42;;;8.60;;
48285;SDS011;34102;47.716;10.296;2023-02-07T19:14:53;16.08;;;7.55;;
48285;SDS011;34102;47.716;10.296;2023-02-07T19:17:18;13.38;;;8.05;;
48285;SDS011;34102;47.716;10.296;2023-02-07T19:19:44;15.43;;;7.68;;
48285;SDS011;34102;47.716;10.296;2023-02-07T19:22:10;15.35;;;7.55;;
48285;SDS011;34102;47.716;10.296;2023-02-07T19:24:35;13.07;;;7.35;;
48285;SDS011;34102;47.716;10.296;2023-02-07T19:27:01;17.88;;;8.20;;
48285;SDS011;34102;47.716;10.296;2023-02-07T19:29:26;16.95;;;8.30;;
48285;SDS011;34102;47.716;10.296;2023-02-07T19:31:57;17.50;;;9.98;;
48285;SDS011;34102;47.716;10.296;2023-02-07T19:34:22;21.30;;;9.20;;
48285;SDS011;34102;47.716;10.296;2023-02-07T19:36:48;17.75;;;9.68;;
48285;SDS011;34102;47.716;10.296;2023-02-07T19:39:13;17.00;;;9.63;;
48285;SDS011;34102;47.716;10.296;2023-02-07T19:41:38;20.58;;;9.77;;
48285;SDS011;34102;47.716;10.296;2023-02-07T19:44:04;20.17;;;8.52;;
48285;SDS011;34102;47.716;10.296;2023-02-07T19:46:29;14.95;;;7.63;;
48285;SDS011;34102;47.716;10.296;2023-02-07T19:48:54;19.90;;;9.43;;
48285;SDS011;34102;47.716;10.296;2023-02-07T19:51:22;23.17;;;11.35;;
48285;SDS011;34102;47.716;10.296;2023-02-07T19:53:48;17.10;;;9.60;;
48285;SDS011;34102;47.716;10.296;2023-02-07T19:56:15;19.33;;;9.98;;
48285;SDS011;34102;47.716;10.296;2023-02-07T19:58:43;19.05;;;9.57;;
48285;SDS011;34102;47.716;10.296;2023-02-07T20:01:08;19.35;;;9.15;;
48285;SDS011;34102;47.716;10.296;2023-02-07T20:03:34;18.35;;;9.48;;
48285;SDS011;34102;47.716;10.296;2023-02-07T20:06:00;20.38;;;9.23;;
48285;SDS011;34102;47.716;10.296;2023-02-07T20:08:26;14.05;;;7.90;;
48285;SDS011;34102;47.716;10.296;2023-02-07T20:10:51;18.20;;;9.40;;
48285;SDS011;34102;47.716;10.296;2023-02-07T20:13:17;20.27;;;9.27;;
48285;SDS011;34102;47.716;10.296;2023-02-07T20:15:43;16.63;;;8.25;;
48285;SDS011;34102;47.716;10.296;2023-02-07T20:18:10;15.45;;;8.38;;
48285;SDS011;34102;47.716;10.296;2023-02-07T20:20:40;18.48;;;9.40;;
48285;SDS011;34102;47.716;10.296;2023-02-07T20:23:05;16.63;;;8.48;;
48285;SDS011;34102;47.716;10.296;2023-02-07T20:25:33;20.95;;;7.90;;
48285;SDS011;34102;47.716;10.296;2023-02-07T20:27:58;16.75;;;8.45;;
48285;SDS011;34102;47.716;10.296;2023-02-07T20:30:24;18.42;;;8.85;;
48285;SDS011;34102;47.716;10.296;2023-02-07T20:32:51;23.33;;;11.20;;
48285;SDS011;34102;47.716;10.296;2023-02-07T20:35:17;27.85;;;10.70;;
48285;SDS011;34102;47.716;10.296;2023-02-07T20:37:42;22.23;;;10.20;;
48285;SDS011;34102;47.716;10.296;2023-02-07T20:40:08;20.88;;;10.82;;
48285;SDS011;34102;47.716;10.296;2023-02-07T20:42:33;17.35;;;9.48;;
48285;SDS011;34102;47.716;10.296;2023-02-07T20:44:58;20.50;;;10.70;;
48285;SDS011;34102;47.716;10.296;2023-02-07T20:47:24;20.23;;;9.88;;
48285;SDS011;34102;47.716;10.296;2023-02-07T20:49:49;19.40;;;9.93;;
48285;SDS011;34102;47.716;10.296;2023-02-07T20:52:14;17.27;;;8.63;;
48285;SDS011;34102;47.716;10.296;2023-02-07T20:54:39;22.02;;;10.63;;
48285;SDS011;34102;47.716;10.296;2023-02-07T20:57:05;23.27;;;9.85;;
48285;SDS011;34102;47.716;10.296;2023-02-07T20:59:31;20.55;;;9.65;;
48285;SDS011;34102;47.716;10.296;2023-02-07T21:01:56;17.10;;;8.90;;
48285;SDS011;34102;47.716;10.296;2023-02-07T21:04:22;16.95;;;9.82;;
48285;SDS011;34102;47.716;10.296;2023-02-07T21:06:48;17.90;;;9.23;;
48285;SDS011;34102;47.716;10.296;2023-02-07T21:09:14;18.08;;;9.60;;
48285;SDS011;34102;47.716;10.296;2023-02-07T21:11:41;22.42;;;11.00;;
48285;SDS011;34102;47.716;10.296;2023-02-07T21:14:09;20.15;;;10.35;;
48285;SDS011;34102;47.716;10.296;2023-02-07T21:16:34;21.02;;;10.15;;
48285;SDS011;34102;47.716;10.296;2023-02-07T21:19:00;18.10;;;9.77;;
48285;SDS011;34102;47.716;10.296;2023-02-07T21:21:26;26.77;;;11.70;;
48285;SDS011;34102;47.716;10.296;2023-02-07T21:23:51;19.58;;;9.70;;
48285;SDS011;34102;47.716;10.296;2023-02-07T21:26:16;20.30;;;10.45;;
48285;SDS011;34102;47.716;10.296;2023-02-07T21:28:45;24.85;;;11.77;;
